sensor_id;sensor_type;location;lat;lon;timestamp;pressure;altitude;pressure_sealevel;temperature;humidity
22241;BME280;11289;52.524;13.694;2023-04-05T00:01:31;101841.09;;;1.11;59.71
22241;BME280;11289;52.524;13.694;2023-04-05T00:03:59;101814.78;;;0.98;60.10
22241;BME280;11289;52.524;13.694;2023-04-05T00:06:26;101837.41;;;1.05;60.22
22241;BME280;11289;52.524;13.694;2023-04-05T00:08:56;101833.00;;;1.04;60.74
22241;BME280;11289;52.524;13.694;2023-04-05T00:11:23;101832.25;;;0.97;60.52
22241;BME280;11289;52.524;13.694;2023-04-05T00:13:49;101822.50;;;0.89;60.42
22241;BME280;11289;52.524;13.694;2023-04-05T00:16:16;101834.53;;;0.88;60.71
22241;BME280;11289;52.524;13.694;2023-04-05T00:18:43;101836.44;;;0.88;60.73
22241;BME280;11289;52.524;13.694;2023-04-05T00:21:17;101835.22;;;0.83;60.88
22241;BME280;11289;52.524;13.694;2023-04-05T00:23:51;101834.41;;;0.83;60.63
22241;BME280;11289;52.524;13.694;2023-04-05T00:26:18;101829.19;;;0.81;60.78
22241;BME280;11289;52.524;13.694;2023-04-05T00:28:46;101828.78;;;0.78;60.48
22241;BME280;11289;52.524;13.694;2023-04-05T00:31:12;101824.03;;;0.73;61.10
22241;BME280;11289;52.524;13.694;2023-04-05T00:33:38;101816.78;;;0.67;61.35
22241;BME280;11289;52.524;13.694;2023-04-05T00:36:17;101826.06;;;0.66;61.14
22241;BME280;11289;52.524;13.694;2023-04-05T00:38:45;101829.38;;;0.68;61.46
22241;BME280;11289;52.524;13.694;2023-04-05T00:41:12;101822.94;;;0.62;61.55
22241;BME280;11289;52.524;13.694;2023-04-05T00:43:39;101819.84;;;0.59;61.65
22241;BME280;11289;52.524;13.694;2023-04-05T00:46:06;101816.50;;;0.57;61.82
22241;BME280;11289;52.524;13.694;2023-04-05T00:48:33;101812.13;;;0.56;61.53
22241;BME280;11289;52.524;13.694;2023-04-05T00:51:00;101803.19;;;0.48;61.13
22241;BME280;11289;52.524;13.694;2023-04-05T00:53:26;101819.13;;;0.51;61.59
22241;BME280;11289;52.524;13.694;2023-04-05T00:55:53;101819.13;;;0.51;61.28
22241;BME280;11289;52.524;13.694;2023-04-05T00:58:20;101819.59;;;0.48;61.58
22241;BME280;11289;52.524;13.694;2023-04-05T01:01:17;101815.41;;;0.46;61.88
22241;BME280;11289;52.524;13.694;2023-04-05T01:03:51;101810.03;;;0.39;61.95
22241;BME280;11289;52.524;13.694;2023-04-05T01:06:43;101813.00;;;0.38;62.15
22241;BME280;11289;52.524;13.694;2023-04-05T01:11:48;101784.19;;;0.11;61.89
22241;BME280;11289;52.524;13.694;2023-04-05T01:14:16;101799.19;;;0.21;62.23
22241;BME280;11289;52.524;13.694;2023-04-05T01:16:42;101811.09;;;0.26;62.17
22241;BME280;11289;52.524;13.694;2023-04-05T01:19:08;101805.00;;;0.24;62.71
22241;BME280;11289;52.524;13.694;2023-04-05T01:24:15;101810.25;;;0.26;63.03
22241;BME280;11289;52.524;13.694;2023-04-05T01:26:57;101805.47;;;0.21;63.33
22241;BME280;11289;52.524;13.694;2023-04-05T01:34:55;101787.19;;;0.22;63.52
22241;BME280;11289;52.524;13.694;2023-04-05T01:37:29;101803.97;;;0.25;63.71
22241;BME280;11289;52.524;13.694;2023-04-05T01:39:57;101796.59;;;0.26;63.46
22241;BME280;11289;52.524;13.694;2023-04-05T01:42:24;101785.53;;;0.21;63.89
22241;BME280;11289;52.524;13.694;2023-04-05T01:44:52;101798.84;;;0.29;63.33
22241;BME280;11289;52.524;13.694;2023-04-05T01:47:18;101790.78;;;0.34;63.78
22241;BME280;11289;52.524;13.694;2023-04-05T01:49:45;101796.84;;;0.36;63.86
22241;BME280;11289;52.524;13.694;2023-04-05T01:52:11;101791.16;;;0.38;63.94
22241;BME280;11289;52.524;13.694;2023-04-05T01:54:37;101783.19;;;0.36;63.59
22241;BME280;11289;52.524;13.694;2023-04-05T01:57:04;101791.53;;;0.41;63.95
22241;BME280;11289;52.524;13.694;2023-04-05T01:59:30;101796.06;;;0.47;63.16
22241;BME280;11289;52.524;13.694;2023-04-05T02:01:56;101794.16;;;0.48;63.25
22241;BME280;11289;52.524;13.694;2023-04-05T02:04:22;101780.13;;;0.44;63.68
22241;BME280;11289;52.524;13.694;2023-04-05T02:06:48;101778.44;;;0.43;63.71
22241;BME280;11289;52.524;13.694;2023-04-05T02:09:15;101775.00;;;0.48;63.71
22241;BME280;11289;52.524;13.694;2023-04-05T02:11:41;101775.97;;;0.54;63.63
22241;BME280;11289;52.524;13.694;2023-04-05T02:14:07;101769.44;;;0.55;63.60
22241;BME280;11289;52.524;13.694;2023-04-05T02:16:33;101770.88;;;0.57;63.16
22241;BME280;11289;52.524;13.694;2023-04-05T02:18:59;101781.09;;;0.62;63.07
22241;BME280;11289;52.524;13.694;2023-04-05T02:21:25;101765.53;;;0.62;62.66
22241;BME280;11289;52.524;13.694;2023-04-05T02:23:52;101760.69;;;0.64;62.38
22241;BME280;11289;52.524;13.694;2023-04-05T02:26:18;101765.09;;;0.65;62.08
22241;BME280;11289;52.524;13.694;2023-04-05T02:28:44;101762.69;;;0.69;61.76
22241;BME280;11289;52.524;13.694;2023-04-05T02:31:11;101762.69;;;0.69;61.92
22241;BME280;11289;52.524;13.694;2023-04-05T02:33:37;101757.81;;;0.71;61.45
22241;BME280;11289;52.524;13.694;2023-04-05T02:36:05;101757.38;;;0.74;61.08
22241;BME280;11289;52.524;13.694;2023-04-05T02:38:32;101753.44;;;0.70;61.47
22241;BME280;11289;52.524;13.694;2023-04-05T02:40:58;101740.25;;;0.67;61.24
22241;BME280;11289;52.524;13.694;2023-04-05T02:43:24;101741.53;;;0.76;61.36
22241;BME280;11289;52.524;13.694;2023-04-05T02:45:50;101750.69;;;0.82;61.20
22241;BME280;11289;52.524;13.694;2023-04-05T02:48:16;101747.13;;;0.81;61.15
22241;BME280;11289;52.524;13.694;2023-04-05T02:50:49;101754.16;;;0.89;61.45
22241;BME280;11289;52.524;13.694;2023-04-05T02:53:16;101752.84;;;0.92;61.35
22241;BME280;11289;52.524;13.694;2023-04-05T02:55:53;101733.22;;;0.83;60.99
22241;BME280;11289;52.524;13.694;2023-04-05T02:58:20;101748.44;;;0.91;61.10
22241;BME280;11289;52.524;13.694;2023-04-05T03:00:47;101741.28;;;0.90;60.84
22241;BME280;11289;52.524;13.694;2023-04-05T03:03:17;101748.69;;;0.89;60.99
22241;BME280;11289;52.524;13.694;2023-04-05T03:05:44;101749.88;;;0.93;60.75
22241;BME280;11289;52.524;13.694;2023-04-05T03:08:14;101741.66;;;0.93;60.79
22241;BME280;11289;52.524;13.694;2023-04-05T03:10:47;101748.78;;;0.94;60.83
22241;BME280;11289;52.524;13.694;2023-04-05T03:13:13;101743.78;;;0.91;60.96
22241;BME280;11289;52.524;13.694;2023-04-05T03:15:40;101744.41;;;0.93;60.48
22241;BME280;11289;52.524;13.694;2023-04-05T03:18:07;101738.06;;;0.93;60.54
22241;BME280;11289;52.524;13.694;2023-04-05T03:20:34;101745.56;;;0.97;60.38
22241;BME280;11289;52.524;13.694;2023-04-05T03:23:08;101744.75;;;0.97;60.44
22241;BME280;11289;52.524;13.694;2023-04-05T03:25:35;101749.50;;;1.01;60.46
22241;BME280;11289;52.524;13.694;2023-04-05T03:28:03;101743.44;;;0.99;60.61
22241;BME280;11289;52.524;13.694;2023-04-05T03:30:31;101737.72;;;1.01;60.51
22241;BME280;11289;52.524;13.694;2023-04-05T03:32:57;101732.97;;;0.96;60.24
22241;BME280;11289;52.524;13.694;2023-04-05T03:35:27;101741.03;;;1.03;60.42
22241;BME280;11289;52.524;13.694;2023-04-05T03:37:54;101739.16;;;1.03;60.61
22241;BME280;11289;52.524;13.694;2023-04-05T03:40:22;101737.84;;;1.06;61.42
22241;BME280;11289;52.524;13.694;2023-04-05T03:42:48;101736.53;;;1.09;60.94
22241;BME280;11289;52.524;13.694;2023-04-05T03:45:14;101738.19;;;1.10;61.27
22241;BME280;11289;52.524;13.694;2023-04-05T03:47:40;101723.94;;;1.08;61.38
22241;BME280;11289;52.524;13.694;2023-04-05T03:50:06;101731.66;;;1.11;61.09
22241;BME280;11289;52.524;13.694;2023-04-05T03:52:32;101730.81;;;1.10;61.33
22241;BME280;11289;52.524;13.694;2023-04-05T03:54:58;101715.25;;;1.11;61.37
22241;BME280;11289;52.524;13.694;2023-04-05T03:57:24;101723.22;;;1.12;61.37
22241;BME280;11289;52.524;13.694;2023-04-05T03:59:52;101718.81;;;1.11;61.17
22241;BME280;11289;52.524;13.694;2023-04-05T04:02:18;101726.03;;;1.17;61.28
22241;BME280;11289;52.524;13.694;2023-04-05T04:04:44;101727.13;;;1.16;61.33
22241;BME280;11289;52.524;13.694;2023-04-05T04:07:12;101728.91;;;1.23;61.02
22241;BME280;11289;52.524;13.694;2023-04-05T04:09:39;101717.84;;;1.17;61.59
22241;BME280;11289;52.524;13.694;2023-04-05T04:12:05;101716.78;;;1.18;61.48
22241;BME280;11289;52.524;13.694;2023-04-05T04:14:33;101723.44;;;1.23;61.54
22241;BME280;11289;52.524;13.694;2023-04-05T04:17:00;101717.84;;;1.17;61.22
22241;BME280;11289;52.524;13.694;2023-04-05T04:19:25;101716.78;;;1.18;61.33
22241;BME280;11289;52.524;13.694;2023-04-05T04:21:51;101727.84;;;1.24;61.38
22241;BME280;11289;52.524;13.694;2023-04-05T04:24:18;101721.28;;;1.25;61.84
22241;BME280;11289;52.524;13.694;2023-04-05T04:26:47;101725.09;;;1.24;61.89
22241;BME280;11289;52.524;13.694;2023-04-05T04:29:13;101727.94;;;1.29;61.72
22241;BME280;11289;52.524;13.694;2023-04-05T04:31:42;101726.00;;;1.29;61.60
22241;BME280;11289;52.524;13.694;2023-04-05T04:34:11;101726.88;;;1.30;62.34
22241;BME280;11289;52.524;13.694;2023-04-05T04:36:39;101727.94;;;1.29;62.47
22241;BME280;11289;52.524;13.694;2023-04-05T04:39:08;101730.19;;;1.32;62.49
22241;BME280;11289;52.524;13.694;2023-04-05T04:41:35;101734.59;;;1.33;62.09
22241;BME280;11289;52.524;13.694;2023-04-05T04:44:03;101723.63;;;1.33;62.84
22241;BME280;11289;52.524;13.694;2023-04-05T04:46:35;101727.44;;;1.32;62.44
22241;BME280;11289;52.524;13.694;2023-04-05T04:49:08;101744.22;;;1.35;62.68
22241;BME280;11289;52.524;13.694;2023-04-05T04:51:36;101734.00;;;1.31;62.33
22241;BME280;11289;52.524;13.694;2023-04-05T04:54:02;101740.06;;;1.33;62.62
22241;BME280;11289;52.524;13.694;2023-04-05T04:56:29;101722.69;;;1.27;62.31
22241;BME280;11289;52.524;13.694;2023-04-05T04:58:55;101734.09;;;1.36;62.34
22241;BME280;11289;52.524;13.694;2023-04-05T05:01:21;101723.16;;;1.36;62.10
22241;BME280;11289;52.524;13.694;2023-04-05T05:03:50;101735.88;;;1.42;61.94
22241;BME280;11289;52.524;13.694;2023-04-05T05:06:17;101732.06;;;1.43;61.91
22241;BME280;11289;52.524;13.694;2023-04-05T05:08:47;101737.03;;;1.46;61.78
22241;BME280;11289;52.524;13.694;2023-04-05T05:11:13;101728.59;;;1.48;61.99
22241;BME280;11289;52.524;13.694;2023-04-05T05:13:39;101725.03;;;1.47;62.25
22241;BME280;11289;52.524;13.694;2023-04-05T05:16:07;101713.16;;;1.42;62.36
22241;BME280;11289;52.524;13.694;2023-04-05T05:18:33;101725.59;;;1.49;62.72
22241;BME280;11289;52.524;13.694;2023-04-05T05:20:59;101733.94;;;1.54;62.28
22241;BME280;11289;52.524;13.694;2023-04-05T05:23:26;101728.78;;;1.58;62.56
22241;BME280;11289;52.524;13.694;2023-04-05T05:25:59;101729.66;;;1.59;62.60
22241;BME280;11289;52.524;13.694;2023-04-05T05:28:26;101722.50;;;1.58;62.58
22241;BME280;11289;52.524;13.694;2023-04-05T05:30:52;101719.88;;;1.63;62.46
22241;BME280;11289;52.524;13.694;2023-04-05T05:33:18;101721.28;;;1.65;63.01
22241;BME280;11289;52.524;13.694;2023-04-05T05:35:47;101725.19;;;1.69;62.92
22241;BME280;11289;52.524;13.694;2023-04-05T05:38:13;101714.84;;;1.71;62.92
22241;BME280;11289;52.524;13.694;2023-04-05T05:40:39;101717.34;;;1.73;62.67
22241;BME280;11289;52.524;13.694;2023-04-05T05:43:05;101707.44;;;1.72;62.96
22241;BME280;11289;52.524;13.694;2023-04-05T05:45:31;101716.59;;;1.78;63.28
22241;BME280;11289;52.524;13.694;2023-04-05T05:47:57;101704.56;;;1.79;63.36
22241;BME280;11289;52.524;13.694;2023-04-05T05:50:23;101703.72;;;1.78;63.21
22241;BME280;11289;52.524;13.694;2023-04-05T05:52:49;101736.19;;;1.86;63.63
22241;BME280;11289;52.524;13.694;2023-04-05T05:55:15;101732.84;;;1.84;63.41
22241;BME280;11289;52.524;13.694;2023-04-05T05:57:41;101742.59;;;1.92;63.15
22241;BME280;11289;52.524;13.694;2023-04-05T06:00:07;101727.00;;;1.92;63.12
22241;BME280;11289;52.524;13.694;2023-04-05T06:02:35;101736.16;;;1.98;62.82
22241;BME280;11289;52.524;13.694;2023-04-05T06:05:01;101738.06;;;1.98;63.19
22241;BME280;11289;52.524;13.694;2023-04-05T06:07:27;101726.34;;;2.02;63.29
22241;BME280;11289;52.524;13.694;2023-04-05T06:09:53;101721.19;;;2.06;62.80
22241;BME280;11289;52.524;13.694;2023-04-05T06:12:22;101720.81;;;2.14;63.15
22241;BME280;11289;52.524;13.694;2023-04-05T06:14:48;101713.16;;;2.16;62.89
22241;BME280;11289;52.524;13.694;2023-04-05T06:17:14;101716.69;;;2.29;62.53
22241;BME280;11289;52.524;13.694;2023-04-05T06:19:40;101721.16;;;2.35;62.88
22241;BME280;11289;52.524;13.694;2023-04-05T06:22:06;101722.44;;;2.44;62.91
22241;BME280;11289;52.524;13.694;2023-04-05T06:24:32;101719.50;;;2.51;62.64
22241;BME280;11289;52.524;13.694;2023-04-05T06:26:58;101720.16;;;2.58;62.41
22241;BME280;11289;52.524;13.694;2023-04-05T06:29:24;101714.53;;;2.65;62.29
22241;BME280;11289;52.524;13.694;2023-04-05T06:31:50;101707.38;;;2.64;61.94
22241;BME280;11289;52.524;13.694;2023-04-05T06:34:16;101721.81;;;2.76;62.08
22241;BME280;11289;52.524;13.694;2023-04-05T06:36:42;101716.16;;;2.83;62.12
22241;BME280;11289;52.524;13.694;2023-04-05T06:39:08;101703.59;;;2.70;62.18
22241;BME280;11289;52.524;13.694;2023-04-05T06:41:34;101718.97;;;2.88;62.53
22241;BME280;11289;52.524;13.694;2023-04-05T06:44:00;101714.16;;;2.95;62.44
22241;BME280;11289;52.524;13.694;2023-04-05T06:46:27;101711.19;;;3.02;62.20
22241;BME280;11289;52.524;13.694;2023-04-05T06:48:53;101702.78;;;3.08;62.06
22241;BME280;11289;52.524;13.694;2023-04-05T06:51:19;101706.81;;;3.23;61.73
22241;BME280;11289;52.524;13.694;2023-04-05T06:53:45;101704.47;;;3.31;61.76
22241;BME280;11289;52.524;13.694;2023-04-05T06:56:11;101706.81;;;3.45;61.63
22241;BME280;11289;52.524;13.694;2023-04-05T06:58:37;101710.75;;;3.54;61.61
22241;BME280;11289;52.524;13.694;2023-04-05T07:01:04;101711.47;;;3.66;61.82
22241;BME280;11289;52.524;13.694;2023-04-05T07:03:30;101719.00;;;3.76;61.20
22241;BME280;11289;52.524;13.694;2023-04-05T07:05:58;101719.63;;;3.83;61.15
22241;BME280;11289;52.524;13.694;2023-04-05T07:08:26;101709.88;;;3.98;61.53
22241;BME280;11289;52.524;13.694;2023-04-05T07:10:53;101719.03;;;4.09;60.90
22241;BME280;11289;52.524;13.694;2023-04-05T07:13:20;101721.34;;;4.17;60.53
22241;BME280;11289;52.524;13.694;2023-04-05T07:15:46;101717.63;;;4.33;61.94
22241;BME280;11289;52.524;13.694;2023-04-05T07:18:12;101728.03;;;4.64;61.28
22241;BME280;11289;52.524;13.694;2023-04-05T07:20:40;101713.41;;;4.96;60.63
22241;BME280;11289;52.524;13.694;2023-04-05T07:23:06;101723.13;;;5.09;58.96
22241;BME280;11289;52.524;13.694;2023-04-05T07:25:32;101717.38;;;5.20;58.89
22241;BME280;11289;52.524;13.694;2023-04-05T07:27:59;101727.84;;;5.23;57.25
22241;BME280;11289;52.524;13.694;2023-04-05T07:30:25;101726.41;;;5.11;57.23
22241;BME280;11289;52.524;13.694;2023-04-05T07:32:53;101726.66;;;5.04;58.16
22241;BME280;11289;52.524;13.694;2023-04-05T07:35:19;101722.47;;;4.91;58.93
22241;BME280;11289;52.524;13.694;2023-04-05T07:37:45;101724.19;;;5.08;58.74
22241;BME280;11289;52.524;13.694;2023-04-05T07:40:11;101725.28;;;5.06;58.90
22241;BME280;11289;52.524;13.694;2023-04-05T07:42:38;101722.84;;;5.10;58.42
22241;BME280;11289;52.524;13.694;2023-04-05T07:45:04;101717.63;;;5.14;58.08
22241;BME280;11289;52.524;13.694;2023-04-05T07:47:32;101718.22;;;5.21;57.27
22241;BME280;11289;52.524;13.694;2023-04-05T07:49:59;101715.44;;;5.16;55.66
22241;BME280;11289;52.524;13.694;2023-04-05T07:52:25;101727.78;;;5.08;55.94
22241;BME280;11289;52.524;13.694;2023-04-05T07:54:51;101721.75;;;5.11;56.39
22241;BME280;11289;52.524;13.694;2023-04-05T07:57:18;101724.06;;;5.35;56.75
22241;BME280;11289;52.524;13.694;2023-04-05T07:59:44;101736.78;;;5.46;55.75
22241;BME280;11289;52.524;13.694;2023-04-05T08:02:10;101736.78;;;5.51;54.82
22241;BME280;11289;52.524;13.694;2023-04-05T08:04:36;101725.00;;;5.61;55.04
22241;BME280;11289;52.524;13.694;2023-04-05T08:07:02;101730.09;;;6.00;55.23
22241;BME280;11289;52.524;13.694;2023-04-05T08:09:28;101720.44;;;6.08;53.71
22241;BME280;11289;52.524;13.694;2023-04-05T08:11:54;101729.28;;;6.05;54.10
22241;BME280;11289;52.524;13.694;2023-04-05T08:14:22;101730.13;;;6.21;52.60
22241;BME280;11289;52.524;13.694;2023-04-05T08:16:48;101725.97;;;6.13;53.06
22241;BME280;11289;52.524;13.694;2023-04-05T08:19:15;101735.09;;;6.19;53.43
22241;BME280;11289;52.524;13.694;2023-04-05T08:21:41;101717.16;;;6.47;54.31
22241;BME280;11289;52.524;13.694;2023-04-05T08:24:07;101723.16;;;6.95;54.30
22241;BME280;11289;52.524;13.694;2023-04-05T08:26:33;101726.75;;;7.01;50.91
22241;BME280;11289;52.524;13.694;2023-04-05T08:28:59;101729.84;;;6.84;49.26
22241;BME280;11289;52.524;13.694;2023-04-05T08:31:25;101719.06;;;6.62;50.21
22241;BME280;11289;52.524;13.694;2023-04-05T08:33:51;101722.94;;;6.71;50.57
22241;BME280;11289;52.524;13.694;2023-04-05T08:36:17;101718.50;;;6.80;49.90
22241;BME280;11289;52.524;13.694;2023-04-05T08:38:43;101723.78;;;6.77;50.01
22241;BME280;11289;52.524;13.694;2023-04-05T08:41:20;101721.31;;;6.60;47.95
22241;BME280;11289;52.524;13.694;2023-04-05T08:43:58;101721.56;;;6.58;48.97
22241;BME280;11289;52.524;13.694;2023-04-05T08:46:30;101725.44;;;6.26;48.54
22241;BME280;11289;52.524;13.694;2023-04-05T08:48:57;101721.28;;;6.24;50.03
22241;BME280;11289;52.524;13.694;2023-04-05T08:51:24;101714.13;;;6.23;49.42
22241;BME280;11289;52.524;13.694;2023-04-05T08:53:52;101727.38;;;6.26;50.53
22241;BME280;11289;52.524;13.694;2023-04-05T08:56:20;101717.44;;;6.45;49.48
22241;BME280;11289;52.524;13.694;2023-04-05T08:59:06;101726.56;;;6.67;50.96
22241;BME280;11289;52.524;13.694;2023-04-05T09:01:36;101726.25;;;6.89;50.60
22241;BME280;11289;52.524;13.694;2023-04-05T09:04:08;101722.31;;;7.10;50.00
22241;BME280;11289;52.524;13.694;2023-04-05T09:06:35;101718.94;;;7.34;50.00
22241;BME280;11289;52.524;13.694;2023-04-05T09:09:05;101721.25;;;6.96;48.83
22241;BME280;11289;52.524;13.694;2023-04-05T09:11:33;101718.25;;;6.77;48.76
22241;BME280;11289;52.524;13.694;2023-04-05T09:14:02;101715.78;;;6.44;49.83
22241;BME280;11289;52.524;13.694;2023-04-05T09:16:31;101727.34;;;6.21;50.25
22241;BME280;11289;52.524;13.694;2023-04-05T09:18:58;101723.50;;;6.12;50.32
22241;BME280;11289;52.524;13.694;2023-04-05T09:21:27;101723.50;;;6.37;51.71
22241;BME280;11289;52.524;13.694;2023-04-05T09:23:54;101725.19;;;6.43;50.77
22241;BME280;11289;52.524;13.694;2023-04-05T09:26:22;101716.63;;;6.45;51.46
22241;BME280;11289;52.524;13.694;2023-04-05T09:28:49;101715.78;;;6.50;51.02
22241;BME280;11289;52.524;13.694;2023-04-05T09:31:35;101719.66;;;6.64;49.45
22241;BME280;11289;52.524;13.694;2023-04-05T09:34:02;101728.47;;;6.61;49.99
22241;BME280;11289;52.524;13.694;2023-04-05T09:36:28;101729.84;;;6.63;49.33
22241;BME280;11289;52.524;13.694;2023-04-05T09:39:08;101726.19;;;7.04;51.20
22241;BME280;11289;52.524;13.694;2023-04-05T09:41:35;101715.63;;;7.32;50.79
22241;BME280;11289;52.524;13.694;2023-04-05T09:44:01;101715.44;;;7.68;51.24
22241;BME280;11289;52.524;13.694;2023-04-05T09:46:33;101710.34;;;7.96;49.84
22241;BME280;11289;52.524;13.694;2023-04-05T09:49:00;101710.19;;;8.16;50.59
22241;BME280;11289;52.524;13.694;2023-04-05T09:51:34;101719.81;;;8.24;48.80
22241;BME280;11289;52.524;13.694;2023-04-05T09:56:33;101705.50;;;8.51;48.35
22241;BME280;11289;52.524;13.694;2023-04-05T09:59:07;101716.91;;;8.45;47.98
22241;BME280;11289;52.524;13.694;2023-04-05T10:01:36;101712.63;;;8.63;47.91
22241;BME280;11289;52.524;13.694;2023-04-05T10:04:02;101710.84;;;8.72;47.64
22241;BME280;11289;52.524;13.694;2023-04-05T10:06:36;101708.88;;;8.78;48.70
22241;BME280;11289;52.524;13.694;2023-04-05T10:09:03;101705.31;;;8.72;48.61
22241;BME280;11289;52.524;13.694;2023-04-05T10:11:31;101707.88;;;8.93;46.88
22241;BME280;11289;52.524;13.694;2023-04-05T10:14:00;101704.69;;;9.04;47.41
22241;BME280;11289;52.524;13.694;2023-04-05T10:16:27;101704.88;;;9.13;46.97
22241;BME280;11289;52.524;13.694;2023-04-05T10:18:55;101711.34;;;8.79;46.79
22241;BME280;11289;52.524;13.694;2023-04-05T10:21:22;101713.44;;;8.63;47.67
22241;BME280;11289;52.524;13.694;2023-04-05T10:24:11;101716.81;;;8.55;46.84
22241;BME280;11289;52.524;13.694;2023-04-05T10:30:04;101715.66;;;8.22;49.63
22241;BME280;11289;52.524;13.694;2023-04-05T10:33:03;101705.84;;;8.45;49.08
22241;BME280;11289;52.524;13.694;2023-04-05T10:35:49;101706.13;;;8.04;48.05
22241;BME280;11289;52.524;13.694;2023-04-05T10:38:24;101708.81;;;8.14;49.44
22241;BME280;11289;52.524;13.694;2023-04-05T10:40:54;101711.81;;;8.17;50.33
22241;BME280;11289;52.524;13.694;2023-04-05T10:43:24;101714.50;;;8.33;50.50
22241;BME280;11289;52.524;13.694;2023-04-05T10:45:53;101705.56;;;8.07;49.49
22241;BME280;11289;52.524;13.694;2023-04-05T10:48:36;101699.59;;;7.89;50.92
22241;BME280;11289;52.524;13.694;2023-04-05T10:51:06;101704.09;;;8.14;50.54
22241;BME280;11289;52.524;13.694;2023-04-05T10:53:33;101707.94;;;8.24;49.62
22241;BME280;11289;52.524;13.694;2023-04-05T10:56:00;101704.81;;;8.30;50.16
22241;BME280;11289;52.524;13.694;2023-04-05T10:58:27;101698.81;;;8.58;49.68
22241;BME280;11289;52.524;13.694;2023-04-05T11:00:54;101698.00;;;8.57;49.34
22241;BME280;11289;52.524;13.694;2023-04-05T11:06:24;101699.16;;;8.80;49.72
22241;BME280;11289;52.524;13.694;2023-04-05T11:11:38;101698.03;;;9.05;47.91
22241;BME280;11289;52.524;13.694;2023-04-05T11:14:39;101689.44;;;9.07;48.78
22241;BME280;11289;52.524;13.694;2023-04-05T11:17:23;101694.34;;;9.15;47.65
22241;BME280;11289;52.524;13.694;2023-04-05T11:19:49;101684.19;;;9.05;47.93
22241;BME280;11289;52.524;13.694;2023-04-05T11:22:26;101685.75;;;9.17;48.31
22241;BME280;11289;52.524;13.694;2023-04-05T11:24:58;101690.34;;;9.27;48.79
22241;BME280;11289;52.524;13.694;2023-04-05T11:27:31;101690.38;;;9.21;48.93
22241;BME280;11289;52.524;13.694;2023-04-05T11:29:59;101691.50;;;9.20;49.46
22241;BME280;11289;52.524;13.694;2023-04-05T11:32:42;101684.16;;;9.11;49.94
22241;BME280;11289;52.524;13.694;2023-04-05T11:35:17;101684.44;;;9.09;51.06
22241;BME280;11289;52.524;13.694;2023-04-05T11:40:36;101682.66;;;9.18;51.38
22241;BME280;11289;52.524;13.694;2023-04-05T11:43:05;101687.19;;;9.33;50.02
22241;BME280;11289;52.524;13.694;2023-04-05T11:45:33;101679.41;;;9.35;49.46
22241;BME280;11289;52.524;13.694;2023-04-05T11:48:04;101669.94;;;9.61;48.37
22241;BME280;11289;52.524;13.694;2023-04-05T11:50:31;101670.28;;;9.73;46.52
22241;BME280;11289;52.524;13.694;2023-04-05T11:53:13;101679.31;;;9.84;47.50
22241;BME280;11289;52.524;13.694;2023-04-05T11:55:45;101676.38;;;9.75;47.47
22241;BME280;11289;52.524;13.694;2023-04-05T11:58:19;101672.19;;;9.97;47.01
22241;BME280;11289;52.524;13.694;2023-04-05T12:00:59;101669.53;;;10.24;45.75
22241;BME280;11289;52.524;13.694;2023-04-05T12:03:27;101662.72;;;10.36;45.35
22241;BME280;11289;52.524;13.694;2023-04-05T12:05:58;101662.94;;;10.53;45.07
22241;BME280;11289;52.524;13.694;2023-04-05T12:11:06;101660.41;;;10.71;44.86
22241;BME280;11289;52.524;13.694;2023-04-05T12:13:32;101661.53;;;10.56;43.74
22241;BME280;11289;52.524;13.694;2023-04-05T12:16:01;101661.28;;;10.52;44.55
22241;BME280;11289;52.524;13.694;2023-04-05T12:18:29;101658.09;;;10.45;44.38
22241;BME280;11289;52.524;13.694;2023-04-05T12:20:56;101660.97;;;10.21;45.03
22241;BME280;11289;52.524;13.694;2023-04-05T12:23:23;101660.81;;;10.31;45.51
22241;BME280;11289;52.524;13.694;2023-04-05T12:25:50;101657.72;;;10.00;44.29
22241;BME280;11289;52.524;13.694;2023-04-05T12:28:17;101650.47;;;9.66;45.73
22241;BME280;11289;52.524;13.694;2023-04-05T12:30:54;101651.69;;;9.35;46.48
22241;BME280;11289;52.524;13.694;2023-04-05T12:33:29;101650.00;;;9.15;47.25
22241;BME280;11289;52.524;13.694;2023-04-05T12:35:57;101645.94;;;9.07;48.10
22241;BME280;11289;52.524;13.694;2023-04-05T12:38:26;101641.16;;;9.13;49.14
22241;BME280;11289;52.524;13.694;2023-04-05T12:40:52;101632.22;;;9.40;48.94
22241;BME280;11289;52.524;13.694;2023-04-05T12:43:19;101647.44;;;9.81;48.47
22241;BME280;11289;52.524;13.694;2023-04-05T12:45:46;101632.81;;;9.94;46.80
22241;BME280;11289;52.524;13.694;2023-04-05T12:48:20;101634.41;;;10.01;47.01
22241;BME280;11289;52.524;13.694;2023-04-05T12:50:50;101628.19;;;10.23;46.34
22241;BME280;11289;52.524;13.694;2023-04-05T12:53:25;101620.97;;;10.41;45.58
22241;BME280;11289;52.524;13.694;2023-04-05T12:55:54;101626.50;;;10.41;44.37
22241;BME280;11289;52.524;13.694;2023-04-05T12:58:34;101627.47;;;10.50;44.67
22241;BME280;11289;52.524;13.694;2023-04-05T13:01:00;101623.28;;;10.67;43.41
22241;BME280;11289;52.524;13.694;2023-04-05T13:03:26;101623.50;;;10.84;42.78
22241;BME280;11289;52.524;13.694;2023-04-05T13:05:52;101617.13;;;10.84;41.76
22241;BME280;11289;52.524;13.694;2023-04-05T13:08:18;101616.69;;;10.76;42.13
22241;BME280;11289;52.524;13.694;2023-04-05T13:10:45;101618.63;;;10.76;42.82
22241;BME280;11289;52.524;13.694;2023-04-05T13:13:13;101612.78;;;10.77;41.82
22241;BME280;11289;52.524;13.694;2023-04-05T13:15:39;101609.06;;;10.21;42.18
22241;BME280;11289;52.524;13.694;2023-04-05T13:18:05;101611.22;;;10.24;43.14
22241;BME280;11289;52.524;13.694;2023-04-05T13:20:31;101597.41;;;10.05;41.95
22241;BME280;11289;52.524;13.694;2023-04-05T13:22:58;101607.84;;;9.94;42.56
22241;BME280;11289;52.524;13.694;2023-04-05T13:25:24;101604.94;;;10.19;43.40